Time;durP1;ratioP1;P1;durP2;ratioP2;P2;SDS_P1;SDS_P2;PMS_P1;PMS_P2;Temp;Humidity;BMP_temperature;BMP_pressure;BME280_temperature;BME280_humidity;BME280_pressure;Samples;Min_cycle;Max_cycle;Signal;HPM_P1;HPM_P2
2022/01/04 00:00:12;;;;;;;22.30;12.85;;;8.10;99.90;;;;;;5069160;28;20115;-56
2022/01/04 00:02:37;;;;;;;29.55;13.07;;;8.00;99.90;;;;;;5069547;28;20044;-56
2022/01/04 00:05:04;;;;;;;22.02;12.73;;;8.00;99.90;;;;;;5075481;28;20142;-56
2022/01/04 00:07:31;;;;;;;22.40;13.18;;;8.00;99.90;;;;;;5075993;28;20036;-56
2022/01/04 00:09:56;;;;;;;25.92;13.68;;;8.00;99.90;;;;;;5063074;28;20406;-56
2022/01/04 00:15:07;;;;;;;26.00;13.88;;;7.90;99.90;;;;;;5062890;28;20045;-56
2022/01/04 00:17:33;;;;;;;23.55;14.18;;;7.80;99.90;;;;;;5068326;28;20060;-57
2022/01/04 00:19:58;;;;;;;24.10;14.07;;;7.80;99.90;;;;;;5070620;28;20048;-56
2022/01/04 00:22:24;;;;;;;23.58;13.48;;;7.80;99.90;;;;;;5068872;28;20044;-56
2022/01/04 00:24:50;;;;;;;28.45;14.48;;;7.70;99.90;;;;;;5066056;28;21628;-56
2022/01/04 00:27:16;;;;;;;29.35;15.63;;;7.70;99.90;;;;;;5064733;28;20152;-57
2022/01/04 00:29:42;;;;;;;23.10;14.80;;;7.80;99.90;;;;;;5071831;28;20112;-56
2022/01/04 00:32:08;;;;;;;27.55;14.93;;;7.80;99.90;;;;;;5070764;28;20065;-58
2022/01/04 00:34:34;;;;;;;21.73;13.90;;;7.70;99.90;;;;;;5064750;28;20044;-56
2022/01/04 00:37:00;;;;;;;30.75;15.60;;;7.70;99.90;;;;;;5058286;28;20459;-56
2022/01/04 00:39:25;;;;;;;23.42;14.75;;;7.80;99.90;;;;;;5066950;28;20120;-56
2022/01/04 00:41:51;;;;;;;27.08;15.73;;;7.70;99.90;;;;;;5069300;28;20085;-56
2022/01/04 00:44:16;;;;;;;26.63;16.77;;;7.60;99.90;;;;;;5065933;28;20028;-55
2022/01/04 00:46:42;;;;;;;30.45;16.70;;;7.60;99.90;;;;;;5072053;28;20037;-56
2022/01/04 00:49:11;;;;;;;25.15;16.50;;;7.60;99.90;;;;;;5064781;28;20048;-56
2022/01/04 00:51:51;;;;;;;30.17;17.85;;;7.50;99.90;;;;;;5074389;28;21457;-56
2022/01/04 00:54:17;;;;;;;29.45;17.73;;;7.40;99.90;;;;;;5075393;28;20056;-57
2022/01/04 00:56:45;;;;;;;28.63;18.05;;;7.40;99.90;;;;;;5068600;28;20037;-58
2022/01/04 00:59:10;;;;;;;29.13;18.77;;;7.40;99.90;;;;;;5071641;28;20052;-57
2022/01/04 01:01:36;;;;;;;30.67;18.75;;;7.40;99.90;;;;;;5076046;28;20040;-56
2022/01/04 01:04:03;;;;;;;24.35;18.38;;;7.40;99.90;;;;;;5076891;28;20045;-56
2022/01/04 01:06:29;;;;;;;29.17;19.55;;;7.40;99.90;;;;;;5075176;28;20044;-56
2022/01/04 01:08:54;;;;;;;32.75;19.30;;;7.40;99.90;;;;;;5072803;28;20041;-56
2022/01/04 01:11:20;;;;;;;34.40;20.02;;;7.40;99.90;;;;;;5074863;28;20049;-58
2022/01/04 01:13:46;;;;;;;34.17;20.33;;;7.40;99.90;;;;;;5071058;28;20176;-57
2022/01/04 01:16:12;;;;;;;31.20;20.13;;;7.40;99.90;;;;;;5071473;28;20448;-57
2022/01/04 01:18:38;;;;;;;34.13;21.33;;;7.40;99.90;;;;;;5062958;28;20406;-57
2022/01/04 01:21:05;;;;;;;31.77;20.00;;;7.40;99.90;;;;;;5062834;28;20033;-56
2022/01/04 01:23:31;;;;;;;36.85;20.98;;;7.40;99.90;;;;;;5075985;28;20044;-56
2022/01/04 01:25:57;;;;;;;33.83;21.13;;;7.40;99.90;;;;;;5067032;28;20039;-56
2022/01/04 01:28:23;;;;;;;33.72;21.35;;;7.30;99.90;;;;;;5070223;28;20075;-57
2022/01/04 01:30:48;;;;;;;27.48;19.25;;;7.30;99.90;;;;;;5067413;28;20036;-57
2022/01/04 01:33:15;;;;;;;30.70;20.88;;;7.40;99.90;;;;;;5069696;28;20072;-57
2022/01/04 01:35:41;;;;;;;34.00;21.15;;;7.40;99.90;;;;;;5064288;28;20044;-56
2022/01/04 01:38:08;;;;;;;29.15;20.13;;;7.40;99.90;;;;;;5062524;28;20086;-57
2022/01/04 01:40:36;;;;;;;31.83;20.83;;;7.40;99.90;;;;;;5063217;28;20028;-54
2022/01/04 01:43:03;;;;;;;32.88;21.45;;;7.40;99.90;;;;;;5063795;28;20166;-56
2022/01/04 01:45:28;;;;;;;36.70;21.83;;;7.40;99.90;;;;;;5071800;28;20040;-56
2022/01/04 01:47:54;;;;;;;33.45;21.88;;;7.40;99.90;;;;;;5071626;28;20040;-57
2022/01/04 01:50:20;;;;;;;32.50;20.63;;;7.30;99.90;;;;;;5077025;28;20047;-56
2022/01/04 01:52:49;;;;;;;30.98;21.92;;;7.30;99.90;;;;;;5070757;28;20043;-56
2022/01/04 01:55:17;;;;;;;34.17;23.25;;;7.30;99.90;;;;;;5074846;28;20072;-56
2022/01/04 01:57:42;;;;;;;34.22;22.27;;;7.20;99.90;;;;;;5077040;28;20111;-56
2022/01/04 02:00:11;;;;;;;35.85;22.17;;;7.20;99.90;;;;;;5069785;28;20159;-57
2022/01/04 02:02:37;;;;;;;33.80;21.45;;;7.20;99.90;;;;;;5073109;28;20094;-56
2022/01/04 02:05:03;;;;;;;33.47;22.08;;;7.20;99.90;;;;;;5074974;28;20048;-56
2022/01/04 02:07:30;;;;;;;31.75;22.25;;;7.20;99.90;;;;;;5076046;28;20086;-57
2022/01/04 02:10:03;;;;;;;39.58;22.52;;;7.10;99.90;;;;;;5061704;28;20048;-57
2022/01/04 02:12:36;;;;;;;42.72;23.63;;;7.10;99.90;;;;;;5022860;28;1016157;-55
2022/01/04 02:15:08;;;;;;;38.25;23.27;;;7.10;99.90;;;;;;5060761;28;20064;-57
2022/01/04 02:17:34;;;;;;;36.90;23.40;;;7.10;99.90;;;;;;5075355;28;20058;-56
2022/01/04 02:20:00;;;;;;;38.65;23.63;;;7.10;99.90;;;;;;5060794;28;20067;-56
2022/01/04 02:22:27;;;;;;;37.53;23.45;;;7.10;99.90;;;;;;5069045;28;20098;-55
2022/01/04 02:24:53;;;;;;;38.78;23.58;;;7.10;99.90;;;;;;5069256;28;20086;-57
2022/01/04 02:27:19;;;;;;;36.92;25.17;;;7.20;99.90;;;;;;5060013;28;20037;-56
2022/01/04 02:29:46;;;;;;;41.30;23.83;;;7.20;99.90;;;;;;5059391;28;20041;-57
2022/01/04 02:32:13;;;;;;;37.75;24.02;;;7.20;99.90;;;;;;5062276;28;20040;-56
2022/01/04 02:34:39;;;;;;;36.13;24.90;;;7.20;99.90;;;;;;5074744;28;20362;-56
2022/01/04 02:37:08;;;;;;;35.92;23.75;;;7.20;99.90;;;;;;5064663;28;20037;-56
2022/01/04 02:39:35;;;;;;;39.25;24.55;;;7.10;99.90;;;;;;5066779;28;20057;-56
2022/01/04 02:42:03;;;;;;;39.93;24.37;;;7.10;99.90;;;;;;5070265;28;20036;-56
2022/01/04 02:44:28;;;;;;;40.25;24.67;;;7.10;99.90;;;;;;5071033;28;20040;-57
2022/01/04 02:46:54;;;;;;;39.83;24.15;;;7.20;99.90;;;;;;5070917;28;20131;-56
2022/01/04 02:49:19;;;;;;;37.47;24.42;;;7.10;99.90;;;;;;5072257;28;20094;-55
2022/01/04 02:51:45;;;;;;;41.58;25.23;;;7.10;99.90;;;;;;5062693;28;20041;-56
2022/01/04 02:54:10;;;;;;;40.72;25.90;;;7.10;99.90;;;;;;5072267;28;20107;-55
2022/01/04 02:56:36;;;;;;;40.92;25.02;;;7.20;99.90;;;;;;5074130;28;20048;-55
2022/01/04 02:59:04;;;;;;;38.80;25.23;;;7.20;99.90;;;;;;5061077;28;20045;-55
2022/01/04 03:01:30;;;;;;;33.03;24.05;;;7.20;99.90;;;;;;5067070;28;20037;-56
2022/01/04 03:03:56;;;;;;;43.50;25.02;;;7.30;99.90;;;;;;5064423;28;20044;-56
2022/01/04 03:06:22;;;;;;;42.78;26.40;;;7.30;99.90;;;;;;5065794;28;20044;-56
2022/01/04 03:08:48;;;;;;;37.83;24.50;;;7.30;99.90;;;;;;5074919;28;20043;-55
2022/01/04 03:11:13;;;;;;;37.38;26.30;;;7.40;99.90;;;;;;5075765;28;20061;-54
2022/01/04 03:13:39;;;;;;;36.80;25.33;;;7.40;99.90;;;;;;5065987;28;20084;-53
2022/01/04 03:16:05;;;;;;;39.28;25.52;;;7.40;99.90;;;;;;5066622;28;20127;-56
2022/01/04 03:18:30;;;;;;;38.30;25.52;;;7.50;99.90;;;;;;5075327;28;20087;-57
2022/01/04 03:20:56;;;;;;;37.67;25.52;;;7.50;99.90;;;;;;5067090;28;20079;-54
2022/01/04 03:23:21;;;;;;;40.72;24.80;;;7.50;99.90;;;;;;5062150;28;20059;-55
2022/01/04 03:25:47;;;;;;;34.83;24.00;;;7.50;99.90;;;;;;5073488;28;20045;-55
2022/01/04 03:28:13;;;;;;;36.17;24.73;;;7.60;99.90;;;;;;5073925;28;20041;-54
2022/01/04 03:30:39;;;;;;;37.75;25.38;;;7.60;99.90;;;;;;5067273;28;20386;-54
2022/01/04 03:33:05;;;;;;;37.75;25.98;;;7.60;99.90;;;;;;5066053;28;20056;-56
2022/01/04 03:35:30;;;;;;;37.55;24.75;;;7.60;99.90;;;;;;5066626;28;20051;-56
2022/01/04 03:37:56;;;;;;;40.47;26.75;;;7.60;99.90;;;;;;5077270;28;20048;-56
2022/01/04 03:40:21;;;;;;;39.70;25.63;;;7.60;99.90;;;;;;5065963;28;20029;-56
2022/01/04 03:42:47;;;;;;;42.67;24.73;;;7.60;99.90;;;;;;5079875;28;20045;-58
2022/01/04 03:45:13;;;;;;;39.13;25.27;;;7.60;99.90;;;;;;5078787;28;20413;-57
2022/01/04 03:47:38;;;;;;;42.22;24.98;;;7.60;99.90;;;;;;5063986;28;20044;-55
2022/01/04 03:50:04;;;;;;;37.72;24.48;;;7.60;99.90;;;;;;5060615;28;20064;-56
2022/01/04 03:52:30;;;;;;;35.60;24.40;;;7.60;99.90;;;;;;5074031;28;20048;-56
2022/01/04 03:54:55;;;;;;;37.25;24.98;;;7.60;99.90;;;;;;5066742;28;20116;-56
2022/01/04 03:57:21;;;;;;;43.50;26.08;;;7.60;99.90;;;;;;5071944;28;20036;-56
2022/01/04 03:59:47;;;;;;;35.25;24.88;;;7.60;99.90;;;;;;5070793;28;20119;-55
2022/01/04 04:02:13;;;;;;;39.35;25.48;;;7.60;99.90;;;;;;5073641;28;20033;-55
2022/01/04 04:04:38;;;;;;;39.20;25.52;;;7.60;99.90;;;;;;5063513;28;20462;-55
2022/01/04 04:07:04;;;;;;;36.05;24.40;;;7.60;99.90;;;;;;5069544;28;20051;-57
2022/01/04 04:09:34;;;;;;;35.15;24.50;;;7.60;99.90;;;;;;5058530;28;20047;-56
2022/01/04 04:12:00;;;;;;;35.72;24.75;;;7.60;99.90;;;;;;5063192;28;20055;-57
2022/01/04 04:14:26;;;;;;;40.35;25.10;;;7.70;99.90;;;;;;5060093;28;20052;-55
2022/01/04 04:16:52;;;;;;;41.78;25.55;;;7.70;99.90;;;;;;5066612;28;20051;-56
2022/01/04 04:19:17;;;;;;;38.70;25.23;;;7.70;99.90;;;;;;5071000;28;20076;-57
2022/01/04 04:21:43;;;;;;;38.10;24.23;;;7.70;99.90;;;;;;5071099;28;20131;-52
2022/01/04 04:24:08;;;;;;;43.13;25.60;;;7.70;99.90;;;;;;5075445;28;20135;-54
2022/01/04 04:26:34;;;;;;;41.55;25.85;;;7.70;99.90;;;;;;5062137;28;20040;-56
2022/01/04 04:29:00;;;;;;;38.45;24.17;;;7.70;99.90;;;;;;5068133;28;20497;-56
2022/01/04 04:31:25;;;;;;;36.90;25.00;;;7.70;99.90;;;;;;5071135;28;20048;-56
2022/01/04 04:33:51;;;;;;;40.30;25.90;;;7.70;99.90;;;;;;5069286;28;20045;-57
2022/01/04 04:36:16;;;;;;;39.53;24.65;;;7.70;99.90;;;;;;5073719;28;20048;-55
2022/01/04 04:38:42;;;;;;;39.38;24.73;;;7.80;99.90;;;;;;5063726;28;20057;-57
2022/01/04 04:41:07;;;;;;;35.65;23.00;;;7.80;99.90;;;;;;5074641;28;20036;-56
2022/01/04 04:43:33;;;;;;;38.78;25.13;;;7.80;99.90;;;;;;5066290;28;20398;-57
2022/01/04 04:45:58;;;;;;;39.70;25.13;;;7.80;99.90;;;;;;5058939;28;20037;-55
2022/01/04 04:48:25;;;;;;;36.33;24.95;;;7.80;99.90;;;;;;5070133;28;20045;-54
2022/01/04 04:50:50;;;;;;;38.53;24.73;;;7.80;99.90;;;;;;5065792;28;20052;-57
2022/01/04 04:53:16;;;;;;;35.33;24.25;;;7.80;99.90;;;;;;5066683;28;20435;-56
2022/01/04 04:55:42;;;;;;;40.78;24.38;;;7.80;99.90;;;;;;5070154;28;20392;-57
2022/01/04 04:58:07;;;;;;;36.10;24.60;;;7.80;99.90;;;;;;5068771;28;20068;-56
2022/01/04 05:00:33;;;;;;;46.60;26.70;;;7.80;99.90;;;;;;5060193;28;20033;-56
2022/01/04 05:02:58;;;;;;;39.38;25.17;;;7.80;99.90;;;;;;5056233;28;20039;-56
2022/01/04 05:05:24;;;;;;;48.33;26.83;;;7.80;99.90;;;;;;5065594;28;20512;-56
2022/01/04 05:07:50;;;;;;;38.97;25.40;;;7.80;99.90;;;;;;5059565;28;20154;-57
2022/01/04 05:10:15;;;;;;;38.97;24.48;;;7.80;99.90;;;;;;5068317;28;20507;-56
2022/01/04 05:12:41;;;;;;;42.10;26.05;;;7.80;99.90;;;;;;5072977;28;20040;-57
2022/01/04 05:15:07;;;;;;;38.13;25.55;;;7.80;99.90;;;;;;5063985;28;20040;-57
2022/01/04 05:17:33;;;;;;;41.25;25.80;;;7.80;99.90;;;;;;5061828;28;20153;-55
2022/01/04 05:19:58;;;;;;;39.67;25.63;;;7.80;99.90;;;;;;5071386;28;20455;-57
2022/01/04 05:22:24;;;;;;;39.45;25.08;;;7.80;99.90;;;;;;5075574;28;20049;-55
2022/01/04 05:24:49;;;;;;;37.10;25.00;;;7.70;99.90;;;;;;5060311;28;20119;-57
2022/01/04 05:27:15;;;;;;;38.30;24.77;;;7.70;99.90;;;;;;5070654;28;20036;-57
2022/01/04 05:29:41;;;;;;;37.90;25.33;;;7.70;99.90;;;;;;5065446;28;20040;-57
2022/01/04 05:32:07;;;;;;;41.60;25.38;;;7.70;99.90;;;;;;5066105;28;20029;-56
2022/01/04 05:34:33;;;;;;;38.78;24.67;;;7.70;99.90;;;;;;5069398;28;20083;-56
2022/01/04 05:36:58;;;;;;;38.72;25.30;;;7.70;99.90;;;;;;5072860;28;20040;-56
2022/01/04 05:39:24;;;;;;;38.00;24.95;;;7.70;99.90;;;;;;5069272;28;20056;-56
2022/01/04 05:41:49;;;;;;;40.60;26.48;;;7.70;99.90;;;;;;5064577;28;20475;-55
2022/01/04 05:44:15;;;;;;;42.78;26.13;;;7.70;99.90;;;;;;5059260;28;20048;-56
2022/01/04 05:46:41;;;;;;;41.33;26.05;;;7.70;99.90;;;;;;5069431;28;20078;-56
2022/01/04 05:49:06;;;;;;;42.90;26.50;;;7.70;99.90;;;;;;5064751;28;20079;-55
2022/01/04 05:51:32;;;;;;;42.20;26.17;;;7.70;99.90;;;;;;5076478;28;20040;-56
2022/01/04 05:53:58;;;;;;;39.28;27.02;;;7.70;99.90;;;;;;5067638;28;20557;-56
2022/01/04 05:56:23;;;;;;;39.45;26.15;;;7.70;99.90;;;;;;5075718;28;20185;-56
2022/01/04 05:58:49;;;;;;;43.55;26.00;;;7.70;99.90;;;;;;5071421;28;20041;-54
2022/01/04 06:01:14;;;;;;;43.08;26.30;;;7.70;99.90;;;;;;5064089;28;20044;-56
2022/01/04 06:03:40;;;;;;;43.42;26.98;;;7.60;99.90;;;;;;5073925;28;20393;-56
2022/01/04 06:06:06;;;;;;;40.03;25.55;;;7.60;99.90;;;;;;5075350;28;20462;-56
2022/01/04 06:08:35;;;;;;;37.97;26.25;;;7.60;99.90;;;;;;5065208;28;20052;-56
2022/01/04 06:11:01;;;;;;;38.75;25.17;;;7.70;99.90;;;;;;5075661;28;20127;-55
2022/01/04 06:16:12;;;;;;;36.28;24.50;;;7.60;99.90;;;;;;5061916;28;20068;-57
2022/01/04 06:18:40;;;;;;;40.55;25.08;;;7.60;99.90;;;;;;5068402;28;20526;-57
2022/01/04 06:21:06;;;;;;;41.03;25.25;;;7.60;99.90;;;;;;5064166;28;20137;-57
2022/01/04 06:23:32;;;;;;;36.38;26.20;;;7.60;99.90;;;;;;5071781;28;20037;-55
2022/01/04 06:25:58;;;;;;;42.22;25.42;;;7.60;99.90;;;;;;5060725;28;20040;-57
2022/01/04 06:28:23;;;;;;;41.42;26.95;;;7.60;99.90;;;;;;5065924;28;20045;-56
2022/01/04 06:30:52;;;;;;;42.10;25.73;;;7.60;99.90;;;;;;5062351;28;20420;-56
2022/01/04 06:33:21;;;;;;;44.53;28.17;;;7.60;99.90;;;;;;5061827;28;20036;-56
2022/01/04 06:35:48;;;;;;;41.22;27.58;;;7.70;99.90;;;;;;5071267;28;20397;-57
2022/01/04 06:38:14;;;;;;;48.08;28.30;;;7.70;99.90;;;;;;5073906;28;20036;-57
2022/01/04 06:40:40;;;;;;;41.30;27.98;;;7.70;99.90;;;;;;5060724;28;20045;-57
2022/01/04 06:43:05;;;;;;;40.47;28.73;;;7.70;99.90;;;;;;5062049;28;20047;-55
2022/01/04 06:45:31;;;;;;;40.05;28.10;;;7.70;99.90;;;;;;5063246;28;20048;-55
2022/01/04 06:47:57;;;;;;;36.08;28.13;;;7.60;99.90;;;;;;5070351;28;20051;-57
2022/01/04 06:50:23;;;;;;;39.85;28.13;;;7.70;99.90;;;;;;5058560;28;20037;-56
2022/01/04 06:52:49;;;;;;;40.80;28.25;;;7.60;99.90;;;;;;5071400;28;20501;-55
2022/01/04 06:55:15;;;;;;;40.13;27.33;;;7.60;99.90;;;;;;5070785;28;20044;-55
2022/01/04 06:57:41;;;;;;;40.78;27.13;;;7.60;99.90;;;;;;5058130;28;20503;-57
2022/01/04 07:00:08;;;;;;;39.13;28.08;;;7.60;99.90;;;;;;5063027;28;20193;-54
2022/01/04 07:02:33;;;;;;;42.03;27.00;;;7.60;99.90;;;;;;5072368;28;20044;-56
2022/01/04 07:04:59;;;;;;;37.90;29.05;;;7.60;99.90;;;;;;5063802;28;20048;-55
2022/01/04 07:07:24;;;;;;;42.97;28.55;;;7.60;99.90;;;;;;5061927;28;20379;-56
2022/01/04 07:09:50;;;;;;;38.63;27.38;;;7.60;99.90;;;;;;5072184;28;20048;-56
2022/01/04 07:12:15;;;;;;;45.08;29.38;;;7.60;99.90;;;;;;5062655;28;20136;-55
2022/01/04 07:14:41;;;;;;;40.58;28.65;;;7.60;99.90;;;;;;5068811;28;20403;-57
2022/01/04 07:17:07;;;;;;;37.85;27.55;;;7.60;99.90;;;;;;5069662;28;20099;-56
2022/01/04 07:19:32;;;;;;;45.55;28.30;;;7.60;99.90;;;;;;5069423;28;20040;-56
2022/01/04 07:21:58;;;;;;;41.78;26.75;;;7.60;99.90;;;;;;5062561;28;20040;-56
2022/01/04 07:24:23;;;;;;;38.10;27.83;;;7.60;99.90;;;;;;5070627;28;20145;-55
2022/01/04 07:26:49;;;;;;;39.38;28.00;;;7.60;99.90;;;;;;5071861;28;20048;-56
2022/01/04 07:29:14;;;;;;;40.10;27.77;;;7.60;99.90;;;;;;5069886;28;20051;-55
2022/01/04 07:31:40;;;;;;;38.67;28.85;;;7.60;99.90;;;;;;5055987;28;20364;-55
2022/01/04 07:34:05;;;;;;;36.70;27.15;;;7.60;99.90;;;;;;5064685;28;20040;-56
2022/01/04 07:36:32;;;;;;;40.10;27.52;;;7.60;99.90;;;;;;5064902;28;20044;-56
2022/01/04 07:38:58;;;;;;;43.15;27.42;;;7.60;99.90;;;;;;5069359;28;20398;-56
2022/01/04 07:41:23;;;;;;;45.55;29.67;;;7.60;99.90;;;;;;5066920;28;20052;-56
2022/01/04 07:43:50;;;;;;;39.53;28.60;;;7.60;99.90;;;;;;5071216;28;20044;-56
2022/01/04 07:46:16;;;;;;;38.67;27.83;;;7.60;99.90;;;;;;5073855;28;20055;-55
2022/01/04 07:48:41;;;;;;;45.42;30.25;;;7.60;99.90;;;;;;5061457;28;20033;-57
2022/01/04 07:51:07;;;;;;;40.40;28.48;;;7.70;99.90;;;;;;5060820;28;20041;-54
2022/01/04 07:53:33;;;;;;;39.55;29.55;;;7.60;99.90;;;;;;5056911;28;20157;-56
2022/01/04 07:55:59;;;;;;;40.95;28.30;;;7.70;99.90;;;;;;5069082;28;20048;-56
2022/01/04 07:58:25;;;;;;;46.15;29.17;;;7.70;99.90;;;;;;5069735;28;20052;-57
2022/01/04 08:00:51;;;;;;;45.63;30.15;;;7.70;99.90;;;;;;5063362;28;20041;-55
2022/01/04 08:03:17;;;;;;;47.35;30.05;;;7.70;99.90;;;;;;5056761;28;20102;-55
2022/01/04 08:05:43;;;;;;;42.67;28.88;;;7.70;99.90;;;;;;5069683;28;20132;-57
2022/01/04 08:08:08;;;;;;;45.03;30.10;;;7.70;99.90;;;;;;5066600;28;20051;-56
2022/01/04 08:10:35;;;;;;;48.30;29.88;;;7.70;99.90;;;;;;5057465;28;20568;-55
2022/01/04 08:13:00;;;;;;;46.30;28.33;;;7.60;99.90;;;;;;5071900;28;20045;-55
2022/01/04 08:15:27;;;;;;;40.70;28.63;;;7.70;99.90;;;;;;5063799;28;20040;-56
2022/01/04 08:17:53;;;;;;;43.08;27.70;;;7.70;99.90;;;;;;5056583;28;20047;-57
2022/01/04 08:20:19;;;;;;;40.10;27.42;;;7.60;99.90;;;;;;5065732;28;20044;-56
2022/01/04 08:22:44;;;;;;;37.25;28.38;;;7.60;99.90;;;;;;5059566;28;20047;-55
2022/01/04 08:25:11;;;;;;;42.38;28.10;;;7.60;99.90;;;;;;5070155;28;20037;-56
2022/01/04 08:27:38;;;;;;;41.45;28.42;;;7.60;99.90;;;;;;5063434;28;20070;-56
2022/01/04 08:30:06;;;;;;;44.38;29.02;;;7.60;99.90;;;;;;5058762;28;20379;-55
2022/01/04 08:32:32;;;;;;;39.40;28.27;;;7.60;99.90;;;;;;5071778;28;20064;-56
2022/01/04 08:34:57;;;;;;;38.10;27.83;;;7.60;99.90;;;;;;5059884;28;20040;-56
2022/01/04 08:37:23;;;;;;;38.22;27.98;;;7.60;99.90;;;;;;5059079;28;20118;-56
2022/01/04 08:39:49;;;;;;;41.30;28.75;;;7.70;99.90;;;;;;5061575;28;20355;-56
2022/01/04 08:42:15;;;;;;;41.60;29.65;;;7.70;99.90;;;;;;5063257;28;20051;-56
2022/01/04 08:44:40;;;;;;;45.85;29.65;;;7.70;99.90;;;;;;5064893;28;20075;-56
2022/01/04 08:47:10;;;;;;;43.58;30.17;;;7.70;99.90;;;;;;5064703;28;20041;-56
2022/01/04 08:49:37;;;;;;;41.55;28.75;;;7.70;99.90;;;;;;5064510;28;20033;-56
2022/01/04 08:52:04;;;;;;;42.97;29.65;;;7.70;99.90;;;;;;5059195;28;20040;-57
2022/01/04 08:54:30;;;;;;;42.38;29.23;;;7.70;99.90;;;;;;5057597;28;20044;-57
2022/01/04 08:56:56;;;;;;;43.45;28.85;;;7.80;99.90;;;;;;5068587;28;20401;-55
2022/01/04 08:59:22;;;;;;;40.60;29.15;;;7.80;99.90;;;;;;5063362;28;20056;-56
2022/01/04 09:01:48;;;;;;;41.03;29.45;;;7.80;99.90;;;;;;5056251;28;20045;-56
2022/01/04 09:04:13;;;;;;;43.38;29.85;;;7.80;99.90;;;;;;5056961;28;20467;-56
2022/01/04 09:06:39;;;;;;;45.47;29.73;;;7.80;99.90;;;;;;5062722;28;20048;-56
2022/01/04 09:09:05;;;;;;;42.95;29.40;;;7.90;99.90;;;;;;5062601;28;20147;-54
2022/01/04 09:11:31;;;;;;;42.33;29.15;;;7.90;99.90;;;;;;5061720;28;20045;-57
2022/01/04 09:15:05;;;;;;;41.65;29.83;;;7.90;99.90;;;;;;5061750;28;20057;-57
2022/01/04 09:19:37;;;;;;;38.17;29.20;;;8.00;99.90;;;;;;5062474;28;20155;-57
2022/01/04 09:22:04;;;;;;;45.88;30.60;;;8.00;99.90;;;;;;5064549;28;20048;-57
2022/01/04 09:24:29;;;;;;;46.63;30.00;;;8.00;99.90;;;;;;5064512;28;20033;-56
2022/01/04 09:26:55;;;;;;;41.67;29.20;;;8.10;99.90;;;;;;5064070;28;20101;-55
2022/01/04 09:29:21;;;;;;;42.83;30.63;;;8.10;99.90;;;;;;5065627;28;20037;-56
2022/01/04 09:31:48;;;;;;;43.20;28.92;;;8.10;99.90;;;;;;5053813;28;20495;-55
2022/01/04 09:34:15;;;;;;;43.22;28.65;;;8.10;99.90;;;;;;5057439;28;20033;-56
2022/01/04 09:36:40;;;;;;;50.80;31.27;;;8.10;99.90;;;;;;5057709;28;20037;-57
2022/01/04 09:39:10;;;;;;;48.05;30.50;;;8.10;99.90;;;;;;5061947;28;20062;-57
2022/01/04 09:41:35;;;;;;;46.15;30.63;;;8.10;99.90;;;;;;5061853;28;20047;-56
2022/01/04 09:44:02;;;;;;;52.78;30.70;;;8.00;99.90;;;;;;5057251;28;20041;-56
2022/01/04 09:46:29;;;;;;;54.45;28.30;;;8.00;99.90;;;;;;5063124;28;20049;-55
2022/01/04 09:48:55;;;;;;;49.58;30.08;;;8.00;99.90;;;;;;5052233;28;20045;-56
2022/01/04 09:51:20;;;;;;;50.22;29.83;;;8.00;99.90;;;;;;5053709;28;20570;-55
2022/01/04 09:53:47;;;;;;;56.88;29.90;;;7.90;99.90;;;;;;5057080;28;20317;-54
2022/01/04 09:56:13;;;;;;;46.50;29.58;;;8.00;99.90;;;;;;5058553;28;21219;-55
2022/01/04 09:58:39;;;;;;;46.08;29.33;;;8.00;99.90;;;;;;5060699;28;20037;-56
2022/01/04 10:01:05;;;;;;;45.42;29.55;;;8.00;99.90;;;;;;5067385;28;20066;-56
2022/01/04 10:03:32;;;;;;;44.42;29.15;;;8.00;99.90;;;;;;5065344;28;20045;-55
2022/01/04 10:06:09;;;;;;;8.55;6.50;;;8.00;99.90;;;;;;5066425;28;20135;-56
2022/01/04 10:08:51;;;;;;;8.83;4.87;;;7.30;99.90;;;;;;5059270;28;20029;-53
2022/01/04 10:11:17;;;;;;;8.38;4.90;;;7.10;99.90;;;;;;5062371;28;20282;-54
2022/01/04 10:13:42;;;;;;;7.25;3.78;;;7.00;99.90;;;;;;5068197;28;20055;-52
2022/01/04 10:16:18;;;;;;;7.13;4.72;;;;;;;;;;5061258;28;20121;-54
2022/01/04 10:18:47;;;;;;;7.90;4.68;;;6.90;99.90;;;;;;5056688;28;20043;-53
2022/01/04 10:21:15;;;;;;;7.55;3.97;;;6.80;99.90;;;;;;5054175;28;20048;-55
2022/01/04 10:23:45;;;;;;;;;;;6.80;99.90;;;;;;5070458;28;20127;-55
2022/01/04 10:26:11;;;;;;;4.93;3.35;;;6.90;99.90;;;;;;5062026;28;19968;-54
2022/01/04 10:28:40;;;;;;;5.07;2.83;;;6.90;99.90;;;;;;5066073;28;20485;-56
2022/01/04 10:31:08;;;;;;;6.85;3.38;;;6.90;99.90;;;;;;5070949;28;20048;-55
2022/01/04 10:33:35;;;;;;;6.47;3.22;;;6.90;99.90;;;;;;5063201;28;20095;-54
2022/01/04 10:36:11;;;;;;;7.47;3.10;;;6.90;99.90;;;;;;5060958;28;20403;-55
2022/01/04 10:38:42;;;;;;;6.60;3.55;;;6.90;99.90;;;;;;5058783;28;20073;-53
2022/01/04 10:41:15;;;;;;;8.75;3.75;;;6.80;99.90;;;;;;5064284;28;20036;-55
2022/01/04 10:43:43;;;;;;;5.97;3.88;;;6.90;99.90;;;;;;5064999;28;20086;-55
2022/01/04 10:46:11;;;;;;;12.63;4.53;;;6.90;99.90;;;;;;5058910;28;20045;-53
2022/01/04 10:48:41;;;;;;;;;;;6.90;99.90;;;;;;5061449;28;20131;-48
2022/01/04 10:51:12;;;;;;;8.40;4.60;;;6.90;99.90;;;;;;5061079;28;19939;-48
2022/01/04 10:53:44;;;;;;;9.65;6.10;;;7.00;99.90;;;;;;5061990;28;20041;-53
2022/01/04 10:56:12;;;;;;;13.63;6.40;;;7.00;99.90;;;;;;5059561;28;20510;-54
2022/01/04 10:58:38;;;;;;;;;;;7.00;99.90;;;;;;5066388;28;20392;-51
2022/01/04 11:01:07;;;;;;;13.23;6.40;;;7.10;99.90;;;;;;5064296;28;19921;-53
2022/01/04 11:03:36;;;;;;;12.75;6.35;;;7.10;99.90;;;;;;5064480;28;20483;-51
2022/01/04 11:06:13;;;;;;;14.02;7.82;;;7.10;99.90;;;;;;5056762;28;20498;-53
2022/01/04 11:08:40;;;;;;;13.85;7.78;;;7.10;99.90;;;;;;5064298;28;20430;-53
2022/01/04 11:11:06;;;;;;;15.20;8.63;;;7.10;99.90;;;;;;5062989;28;20394;-49
2022/01/04 11:13:32;;;;;;;15.35;8.82;;;7.20;99.90;;;;;;5063980;28;20053;-53
2022/01/04 11:16:00;;;;;;;14.90;9.40;;;7.20;99.90;;;;;;5061443;28;20126;-52
2022/01/04 11:18:27;;;;;;;15.82;9.40;;;7.20;99.90;;;;;;5063954;28;20043;-54
2022/01/04 11:20:53;;;;;;;18.27;10.60;;;7.20;99.90;;;;;;5069475;28;20352;-55
2022/01/04 11:23:27;;;;;;;18.67;10.07;;;7.20;99.90;;;;;;5063385;28;20048;-54
2022/01/04 11:25:54;;;;;;;18.38;9.60;;;7.30;99.90;;;;;;5061763;28;20040;-55
2022/01/04 11:28:21;;;;;;;12.37;7.10;;;;;;;;;;5057827;28;20127;-52
2022/01/04 11:31:05;;;;;;;14.70;6.90;;;;;;;;;;5059721;28;20187;-54
2022/01/04 11:33:46;;;;;;;9.80;4.07;;;7.40;99.90;;;;;;5068421;28;20052;-52
2022/01/04 11:36:17;;;;;;;9.52;4.25;;;7.40;99.90;;;;;;5062749;28;20118;-54
2022/01/04 11:38:43;;;;;;;7.95;3.97;;;7.30;99.90;;;;;;5062749;28;20032;-54
2022/01/04 11:41:20;;;;;;;4.13;1.90;;;7.30;99.90;;;;;;5058383;28;20128;-54
2022/01/04 11:43:46;;;;;;;6.53;1.85;;;7.20;99.90;;;;;;5060818;28;20115;-54
2022/01/04 11:46:31;;;;;;;3.90;1.38;;;7.10;99.90;;;;;;5062506;28;20071;-55
2022/01/04 11:49:08;;;;;;;3.65;1.60;;;7.00;99.90;;;;;;5056838;28;20041;-53
2022/01/04 11:51:39;;;;;;;4.18;1.48;;;6.90;99.90;;;;;;5059458;28;20040;-55
2022/01/04 11:54:27;;;;;;;7.32;1.80;;;6.90;99.90;;;;;;5061544;28;20055;-54
2022/01/04 11:57:00;;;;;;;3.08;1.45;;;6.80;99.90;;;;;;5061935;28;20398;-53
2022/01/04 11:59:35;;;;;;;3.63;1.88;;;6.80;99.90;;;;;;5061889;28;20041;-56
2022/01/04 12:02:32;;;;;;;3.60;1.33;;;6.80;99.90;;;;;;5063959;28;20076;-53
2022/01/04 12:05:15;;;;;;;7.88;1.83;;;6.80;99.90;;;;;;5059364;28;20045;-53
2022/01/04 12:07:48;;;;;;;3.78;1.25;;;6.80;99.90;;;;;;5059511;28;20048;-53
2022/01/04 12:10:22;;;;;;;6.00;1.92;;;6.70;99.90;;;;;;5064464;28;20072;-53
2022/01/04 12:12:56;;;;;;;4.07;2.25;;;6.80;99.90;;;;;;5061398;28;20060;-55
2022/01/04 12:15:34;;;;;;;12.30;3.30;;;6.90;99.90;;;;;;5068187;28;20104;-54
2022/01/04 12:18:04;;;;;;;7.88;3.00;;;6.80;99.90;;;;;;5064752;28;20040;-53
2022/01/04 12:20:42;;;;;;;7.28;2.40;;;6.80;99.90;;;;;;5063113;28;20394;-54
2022/01/04 12:23:26;;;;;;;3.90;2.53;;;6.80;99.90;;;;;;5064608;28;20043;-52
2022/01/04 12:26:07;;;;;;;4.97;1.60;;;6.70;99.90;;;;;;5063719;28;20045;-53
2022/01/04 12:28:44;;;;;;;2.30;1.45;;;6.70;99.90;;;;;;5059921;28;20053;-52
2022/01/04 12:31:19;;;;;;;2.42;1.55;;;6.60;99.90;;;;;;5068120;28;20052;-52
2022/01/04 12:33:53;;;;;;;3.40;1.20;;;6.50;99.90;;;;;;5069665;28;20404;-56
2022/01/04 12:36:37;;;;;;;1.60;1.08;;;6.40;99.90;;;;;;5063532;28;20405;-51
2022/01/04 12:39:06;;;;;;;2.58;1.27;;;6.40;99.90;;;;;;5061456;28;20485;-52
2022/01/04 12:41:32;;;;;;;4.90;1.50;;;6.40;99.90;;;;;;5073396;28;20258;-54
2022/01/04 12:43:59;;;;;;;3.50;1.80;;;6.40;99.90;;;;;;5073656;28;20119;-53
2022/01/04 12:46:46;;;;;;;3.42;1.90;;;6.30;99.90;;;;;;5071440;28;20044;-54
2022/01/04 12:49:14;;;;;;;6.60;1.88;;;6.20;99.90;;;;;;5073839;28;20474;-51
2022/01/04 12:51:47;;;;;;;6.63;2.10;;;6.20;99.90;;;;;;5065861;28;20115;-55